createdAt,value
2022-12-08T00:00:50.952Z,100655.28
2022-12-08T00:03:17.804Z,100641.44
2022-12-08T00:06:04.345Z,100653.31
2022-12-08T00:08:49.852Z,100645.56
2022-12-08T00:11:17.486Z,100641.16
2022-12-08T00:13:44.114Z,100628.31
2022-12-08T00:16:11.025Z,100629.16
2022-12-08T00:18:37.801Z,100635.13
2022-12-08T00:21:04.469Z,100621.47
2022-12-08T00:23:30.897Z,100624.75
2022-12-08T00:26:01.179Z,100623.91
2022-12-08T00:28:27.632Z,100624.13
2022-12-08T00:30:54.251Z,100613.19
2022-12-08T00:33:20.718Z,100611.75
2022-12-08T00:35:47.161Z,100603.31
2022-12-08T00:38:13.658Z,100603.47
2022-12-08T00:40:49.033Z,100604.25
2022-12-08T00:43:15.494Z,100595.94
2022-12-08T00:45:43.551Z,100595.03
2022-12-08T00:48:10.043Z,100604.53
2022-12-08T00:50:36.509Z,100593.34
2022-12-08T00:53:02.977Z,100592.53
2022-12-08T00:55:29.459Z,100587.50
2022-12-08T00:57:55.931Z,100590.09
2022-12-08T01:00:22.415Z,100589.19
2022-12-08T01:02:49.001Z,100585.00
2022-12-08T01:05:15.485Z,100585.78
2022-12-08T01:07:42.026Z,100593.50
2022-12-08T01:10:08.827Z,100590.09
2022-12-08T01:12:35.296Z,100589.03
2022-12-08T01:15:02.778Z,100590.66
2022-12-08T01:17:29.534Z,100582.81
2022-12-08T01:19:55.985Z,100591.34
2022-12-08T01:22:22.420Z,100585.25
2022-12-08T01:24:48.949Z,100585.94
2022-12-08T01:27:16.172Z,100586.75
2022-12-08T01:29:42.659Z,100588.28
2022-12-08T01:32:09.541Z,100584.69
2022-12-08T01:34:35.993Z,100593.28
2022-12-08T01:37:02.437Z,100593.13
2022-12-08T01:39:29.918Z,100592.38
2022-12-08T01:41:56.454Z,100594.91
2022-12-08T01:44:22.839Z,100596.56
2022-12-08T01:46:51.808Z,100589.56
2022-12-08T01:49:30.501Z,100589.66
2022-12-08T01:52:16.835Z,100588.13
2022-12-08T01:54:52.705Z,100582.06
2022-12-08T01:57:27.674Z,100586.28
2022-12-08T02:00:04.679Z,100589.78
2022-12-08T02:02:34.283Z,100575.84
2022-12-08T02:05:03.282Z,100580.31
2022-12-08T02:07:30.684Z,100577.72
2022-12-08T02:09:57.849Z,100572.63
2022-12-08T02:12:24.565Z,100576.13
2022-12-08T02:14:51.086Z,100572.56
2022-12-08T02:17:43.047Z,100567.16
2022-12-08T02:20:28.636Z,100566.31
2022-12-08T02:23:06.030Z,100575.91
2022-12-08T02:25:38.290Z,100568.31
2022-12-08T02:28:25.869Z,100561.25
2022-12-08T02:31:22.619Z,100558.06
2022-12-08T02:34:10.146Z,100554.84
2022-12-08T02:36:42.640Z,100546.97
2022-12-08T02:39:16.380Z,100548.53
2022-12-08T02:41:56.694Z,100536.31
2022-12-08T02:44:39.104Z,100536.66
2022-12-08T02:47:10.153Z,100522.19
2022-12-08T02:49:36.498Z,100528.28
2022-12-08T02:52:27.596Z,100514.63
2022-12-08T02:54:58.721Z,100514.63
2022-12-08T02:58:03.216Z,100508.38
2022-12-08T03:00:41.271Z,100508.13
2022-12-08T03:03:19.873Z,100505.50
2022-12-08T03:06:09.285Z,100504.56
2022-12-08T03:08:48.547Z,100497.91
2022-12-08T03:11:42.605Z,100491.72
2022-12-08T03:14:12.636Z,100499.47
2022-12-08T03:16:42.651Z,100496.16
2022-12-08T03:19:18.557Z,100494.25
2022-12-08T03:21:49.883Z,100492.16
2022-12-08T03:24:18.728Z,100483.53
2022-12-08T03:26:58.396Z,100484.53
2022-12-08T03:29:25.111Z,100484.34
2022-12-08T03:31:59.291Z,100480.19
2022-12-08T03:34:29.724Z,100479.34
2022-12-08T03:36:56.540Z,100475.25
2022-12-08T03:39:23.082Z,100471.16
2022-12-08T03:41:49.557Z,100467.84
2022-12-08T03:44:16.023Z,100470.41
2022-12-08T03:46:42.476Z,100468.72
2022-12-08T03:49:08.898Z,100472.66
2022-12-08T03:51:35.381Z,100464.16
2022-12-08T03:54:01.804Z,100459.75
2022-12-08T03:56:34.282Z,100457.03
2022-12-08T03:59:01.385Z,100460.66
2022-12-08T04:01:27.943Z,100465.69
2022-12-08T04:03:54.893Z,100448.59
2022-12-08T04:06:22.301Z,100455.50
2022-12-08T04:08:49.225Z,100451.88
2022-12-08T04:11:15.794Z,100453.34
2022-12-08T04:13:42.957Z,100440.00
2022-12-08T04:16:18.248Z,100443.19
2022-12-08T04:18:45.406Z,100438.34
2022-12-08T04:21:12.344Z,100438.34
2022-12-08T04:23:38.928Z,100425.03
2022-12-08T04:26:06.125Z,100440.44
2022-12-08T04:28:33.038Z,100428.28
2022-12-08T04:30:59.715Z,100425.03
2022-12-08T04:33:26.392Z,100419.03
2022-12-08T04:35:52.916Z,100415.84
2022-12-08T04:38:19.531Z,100421.78
2022-12-08T04:40:46.026Z,100414.03
2022-12-08T04:43:12.555Z,100414.69
2022-12-08T04:45:40.204Z,100411.03
2022-12-08T04:48:07.252Z,100414.88
2022-12-08T04:50:33.890Z,100421.94
2022-12-08T04:53:00.342Z,100410.84
2022-12-08T04:55:26.781Z,100412.34
2022-12-08T04:57:53.232Z,100408.72
2022-12-08T05:00:19.967Z,100408.88
2022-12-08T05:02:46.443Z,100409.88
2022-12-08T05:05:12.954Z,100401.50
2022-12-08T05:07:39.529Z,100416.63
2022-12-08T05:10:07.124Z,100403.72
2022-12-08T05:12:33.776Z,100400.47
2022-12-08T05:15:00.268Z,100413.19
2022-12-08T05:17:26.690Z,100418.34
2022-12-08T05:19:53.299Z,100400.34
2022-12-08T05:22:19.794Z,100396.72
2022-12-08T05:24:47.767Z,100406.78
2022-12-08T05:27:14.727Z,100399.19
2022-12-08T05:29:41.714Z,100408.47
2022-12-08T05:32:08.351Z,100395.97
2022-12-08T05:34:34.847Z,100395.13
2022-12-08T05:37:01.371Z,100406.94
2022-12-08T05:39:27.907Z,100397.63
2022-12-08T05:41:54.657Z,100401.03
2022-12-08T05:44:21.150Z,100393.22
2022-12-08T05:46:47.651Z,100393.88
2022-12-08T05:49:14.095Z,100392.97
2022-12-08T05:51:40.575Z,100389.53
2022-12-08T05:54:07.004Z,100386.22
2022-12-08T05:56:33.448Z,100384.53
2022-12-08T05:59:00.459Z,100384.72
2022-12-08T06:01:31.603Z,100381.13
2022-12-08T06:04:00.586Z,100395.72
2022-12-08T06:06:28.042Z,100374.38
2022-12-08T06:08:54.809Z,100381.22
2022-12-08T06:11:24.710Z,100381.53
2022-12-08T06:13:52.082Z,100378.94
2022-12-08T06:16:19.336Z,100384.97
2022-12-08T06:18:46.421Z,100387.44
2022-12-08T06:21:14.663Z,100383.06
2022-12-08T06:23:41.633Z,100388.28
2022-12-08T06:26:11.131Z,100380.69
2022-12-08T06:28:38.228Z,100385.03
2022-12-08T06:31:10.119Z,100395.44
2022-12-08T06:33:37.086Z,100385.84
2022-12-08T06:36:04.724Z,100386.94
2022-12-08T06:38:31.185Z,100382.94
2022-12-08T06:40:58.796Z,100383.50
2022-12-08T06:43:26.505Z,100381.72
2022-12-08T06:45:53.366Z,100380.03
2022-12-08T06:48:20.018Z,100386.03
2022-12-08T06:50:46.537Z,100380.94
2022-12-08T06:53:14.975Z,100378.53
2022-12-08T06:55:59.183Z,100379.94
2022-12-08T06:58:26.296Z,100385.25
2022-12-08T07:00:53.587Z,100379.75
2022-12-08T07:03:20.579Z,100386.50
2022-12-08T07:05:47.200Z,100393.28
2022-12-08T07:08:14.866Z,100405.56
2022-12-08T07:10:41.461Z,100406.56
2022-12-08T07:13:07.963Z,100396.16
2022-12-08T07:15:34.428Z,100402.91
2022-12-08T07:18:00.953Z,100403.00
2022-12-08T07:20:28.091Z,100406.34
2022-12-08T07:22:54.962Z,100399.66
2022-12-08T07:25:21.725Z,100409.81
2022-12-08T07:27:48.332Z,100412.75
2022-12-08T07:30:15.060Z,100419.56
2022-12-08T07:32:41.739Z,100417.91
2022-12-08T07:35:08.913Z,100405.22
2022-12-08T07:37:36.191Z,100411.06
2022-12-08T07:40:03.997Z,100412.13
2022-12-08T07:42:30.649Z,100406.00
2022-12-08T07:44:57.063Z,100397.41
2022-12-08T07:47:23.533Z,100405.09
2022-12-08T07:49:49.988Z,100395.63
2022-12-08T07:52:16.479Z,100404.47
2022-12-08T07:54:42.951Z,100401.16
2022-12-08T07:57:09.860Z,100402.81
2022-12-08T07:59:36.477Z,100401.09
2022-12-08T08:02:22.998Z,100396.47
2022-12-08T08:04:51.187Z,100401.78
2022-12-08T08:07:17.752Z,100393.94
2022-12-08T08:09:44.297Z,100395.78
2022-12-08T08:12:30.328Z,100406.19
2022-12-08T08:14:57.304Z,100392.44
2022-12-08T08:17:23.947Z,100390.03
2022-12-08T08:19:50.544Z,100394.34
2022-12-08T08:22:17.010Z,100386.69
2022-12-08T08:24:45.184Z,100396.09
2022-12-08T08:27:12.522Z,100399.28
2022-12-08T08:29:38.962Z,100394.19
2022-12-08T08:32:05.861Z,100390.72
2022-12-08T08:34:32.451Z,100393.31
2022-12-08T08:36:59.149Z,100389.88
2022-12-08T08:39:25.668Z,100392.44
2022-12-08T08:41:52.381Z,100388.03
2022-12-08T08:44:18.849Z,100396.53
2022-12-08T08:46:45.442Z,100398.59
2022-12-08T08:49:11.928Z,100395.88
2022-12-08T08:51:38.682Z,100397.78
2022-12-08T08:54:05.174Z,100398.69
2022-12-08T08:56:31.859Z,100398.69
2022-12-08T08:58:58.312Z,100401.28
2022-12-08T09:01:27.785Z,100399.56
2022-12-08T09:03:55.300Z,100395.94
2022-12-08T09:06:22.348Z,100390.09
2022-12-08T09:08:49.301Z,100396.09
2022-12-08T09:11:18.505Z,100398.59
2022-12-08T09:13:49.026Z,100393.13
2022-12-08T09:16:16.105Z,100399.34
2022-12-08T09:18:42.730Z,100403.53
2022-12-08T09:21:20.395Z,100397.53
2022-12-08T09:23:47.007Z,100407.69
2022-12-08T09:26:19.343Z,100400.88
2022-12-08T09:28:46.754Z,100394.88
2022-12-08T09:31:14.297Z,100396.53
2022-12-08T09:33:40.947Z,100400.03
2022-12-08T09:36:07.934Z,100401.78
2022-12-08T09:38:37.139Z,100399.44
2022-12-08T09:41:14.114Z,100403.63
2022-12-08T09:43:51.636Z,100396.94
2022-12-08T09:46:19.913Z,100404.66
2022-12-08T09:48:57.086Z,100403.91
2022-12-08T09:51:33.223Z,100398.00
2022-12-08T09:54:02.699Z,100401.41
2022-12-08T09:56:33.756Z,100393.59
2022-12-08T09:59:19.804Z,100393.53
2022-12-08T10:01:46.475Z,100386.69
2022-12-08T10:04:26.186Z,100388.13
2022-12-08T10:06:55.569Z,100383.78
2022-12-08T10:09:22.983Z,100382.06
2022-12-08T10:12:14.503Z,100386.22
2022-12-08T10:14:47.680Z,100376.44
2022-12-08T10:17:23.713Z,100371.94
2022-12-08T10:19:59.349Z,100375.22
2022-12-08T10:22:31.104Z,100382.63
2022-12-08T10:25:01.428Z,100388.16
2022-12-08T10:27:28.079Z,100371.81
2022-12-08T10:29:54.554Z,100377.81
2022-12-08T10:32:24.463Z,100364.59
2022-12-08T10:35:04.166Z,100372.19
2022-12-08T10:37:30.731Z,100366.34
2022-12-08T10:40:12.705Z,100358.34
2022-12-08T10:42:59.121Z,100354.72
2022-12-08T10:45:33.357Z,100357.88
2022-12-08T10:48:06.511Z,100351.28
2022-12-08T10:50:41.398Z,100352.69
2022-12-08T10:53:07.894Z,100347.13
2022-12-08T10:55:46.392Z,100354.78
2022-12-08T10:58:29.516Z,100352.22
2022-12-08T11:01:03.382Z,100339.22
2022-12-08T11:03:34.295Z,100342.53
2022-12-08T11:06:09.020Z,100338.38
2022-12-08T11:08:47.090Z,100328.66
2022-12-08T11:11:14.006Z,100330.22
2022-12-08T11:13:42.039Z,100330.53
2022-12-08T11:16:11.092Z,100331.47
2022-12-08T11:18:44.667Z,100319.97
2022-12-08T11:21:14.617Z,100311.63
2022-12-08T11:23:43.224Z,100315.56
2022-12-08T11:26:28.378Z,100315.78
2022-12-08T11:28:55.659Z,100312.56
2022-12-08T11:31:35.267Z,100310.81
2022-12-08T11:34:03.201Z,100316.03
2022-12-08T11:36:33.552Z,100303.53
2022-12-08T11:39:02.766Z,100304.88
2022-12-08T11:41:35.786Z,100305.53
2022-12-08T11:44:05.896Z,100306.53
2022-12-08T11:46:37.075Z,100305.19
2022-12-08T11:49:13.205Z,100296.44
2022-12-08T11:51:45.959Z,100296.84
2022-12-08T11:54:34.715Z,100299.69
2022-12-08T11:57:03.815Z,100306.94
2022-12-08T11:59:32.309Z,100293.75
2022-12-08T12:02:01.156Z,100292.84
2022-12-08T12:04:37.311Z,100295.69
2022-12-08T12:07:03.735Z,100291.13
2022-12-08T12:09:42.085Z,100288.28
2022-12-08T12:12:31.627Z,100288.53
2022-12-08T12:15:37.158Z,100285.38
2022-12-08T12:18:24.575Z,100282.34
2022-12-08T12:21:04.788Z,100279.47
2022-12-08T12:23:38.402Z,100279.88
2022-12-08T12:26:08.623Z,100293.72
2022-12-08T12:28:44.546Z,100286.50
2022-12-08T12:31:16.469Z,100284.94
2022-12-08T12:33:46.372Z,100280.31
2022-12-08T12:36:14.791Z,100273.31
2022-12-08T12:39:06.205Z,100270.28
2022-12-08T12:41:38.073Z,100269.44
2022-12-08T12:44:07.372Z,100274.13
2022-12-08T12:46:36.885Z,100267.22
2022-12-08T12:49:40.821Z,100266.00
2022-12-08T12:52:10.131Z,100263.53
2022-12-08T12:54:36.599Z,100255.50
2022-12-08T12:57:05.848Z,100264.34
2022-12-08T12:59:42.599Z,100264.53
2022-12-08T13:02:31.242Z,100260.81
2022-12-08T13:04:57.870Z,100261.28
2022-12-08T13:07:28.758Z,100258.97
2022-12-08T13:10:00.594Z,100264.88
2022-12-08T13:12:28.223Z,100255.47
2022-12-08T13:15:02.509Z,100260.53
2022-12-08T13:17:32.260Z,100263.59
2022-12-08T13:20:02.261Z,100268.41
2022-12-08T13:22:47.559Z,100261.28
2022-12-08T13:25:38.987Z,100255.81
2022-12-08T13:28:27.243Z,100258.06
2022-12-08T13:31:01.662Z,100260.84
2022-12-08T13:33:38.372Z,100249.75
2022-12-08T13:36:39.951Z,100248.47
2022-12-08T13:39:12.164Z,100241.34
2022-12-08T13:41:43.236Z,100239.69
2022-12-08T13:47:35.003Z,100238.31
2022-12-08T13:59:09.779Z,100238.75
2022-12-08T14:01:48.789Z,100228.88
2022-12-08T14:04:47.848Z,100231.25
2022-12-08T14:07:11.699Z,100228.88
2022-12-08T14:09:39.894Z,100242.88
2022-12-08T14:12:22.317Z,100243.72
2022-12-08T14:15:13.595Z,100241.03
2022-12-08T14:17:40.827Z,100241.50
2022-12-08T14:20:13.332Z,100257.59
2022-12-08T14:22:40.968Z,100252.22
2022-12-08T14:25:14.007Z,100245.50
2022-12-08T14:27:40.580Z,100238.38
2022-12-08T14:30:14.978Z,100242.88
2022-12-08T14:32:48.801Z,100248.72
2022-12-08T14:35:38.083Z,100242.72
2022-12-08T14:38:06.036Z,100241.88
2022-12-08T14:40:36.693Z,100241.50
2022-12-08T14:43:06.315Z,100245.88
2022-12-08T14:45:36.105Z,100246.41
2022-12-08T14:48:23.108Z,100248.72
2022-12-08T14:51:13.913Z,100244.94
2022-12-08T14:53:52.792Z,100244.47
2022-12-08T14:56:37.436Z,100248.59
2022-12-08T14:59:14.720Z,100255.25
2022-12-08T15:01:42.919Z,100254.50
2022-12-08T15:04:12.361Z,100245.28
2022-12-08T15:07:06.756Z,100234.38
2022-12-08T15:09:42.223Z,100240.88
2022-12-08T15:12:14.817Z,100242.66
2022-12-08T15:14:56.048Z,100243.00
2022-12-08T15:17:42.587Z,100233.84
2022-12-08T15:20:35.366Z,100231.25
2022-12-08T15:23:02.708Z,100226.28
2022-12-08T15:25:29.369Z,100236.88
2022-12-08T15:27:59.036Z,100231.88
2022-12-08T15:30:29.770Z,100238.88
2022-12-08T15:32:56.481Z,100239.53
2022-12-08T15:35:23.213Z,100241.78
2022-12-08T15:44:34.160Z,100239.97
2022-12-08T15:47:01.262Z,100244.38
2022-12-08T15:49:27.896Z,100240.88
2022-12-08T15:52:01.986Z,100241.53
2022-12-08T15:54:37.089Z,100248.47
2022-12-08T15:57:19.298Z,100240.81
2022-12-08T15:59:47.019Z,100247.72
2022-12-08T16:02:18.002Z,100241.78
2022-12-08T16:05:33.167Z,100233.50
2022-12-08T16:07:38.009Z,100237.00
2022-12-08T16:10:06.865Z,100240.50
2022-12-08T16:16:00.670Z,100239.66
2022-12-08T16:18:31.581Z,100249.25
2022-12-08T16:21:31.601Z,100239.91
2022-12-08T16:23:45.434Z,100240.91
2022-12-08T16:29:06.564Z,100240.91
2022-12-08T16:31:33.451Z,100228.84
2022-12-08T16:34:00.082Z,100235.94
2022-12-08T16:36:26.620Z,100235.06
2022-12-08T16:38:53.111Z,100242.94
2022-12-08T16:41:38.182Z,100248.16
2022-12-08T16:44:06.418Z,100236.19
2022-12-08T16:46:33.283Z,100237.00
2022-12-08T16:48:59.771Z,100242.25
2022-12-08T16:51:27.826Z,100241.50
2022-12-08T16:53:55.623Z,100243.25
2022-12-08T16:56:28.798Z,100244.94
2022-12-08T16:58:58.714Z,100246.19
2022-12-08T17:01:25.371Z,100244.69
2022-12-08T17:04:22.649Z,100244.59
2022-12-08T17:06:38.396Z,100240.44
2022-12-08T17:09:05.334Z,100236.09
2022-12-08T17:11:37.436Z,100236.28
2022-12-08T17:14:09.185Z,100237.19
2022-12-08T17:16:35.994Z,100244.09
2022-12-08T17:19:02.568Z,100234.69
2022-12-08T17:21:29.115Z,100236.59
2022-12-08T17:23:55.705Z,100241.75
2022-12-08T17:26:22.224Z,100236.69
2022-12-08T17:29:04.026Z,100233.09
2022-12-08T17:31:32.425Z,100241.75
2022-12-08T17:34:03.627Z,100241.84
2022-12-08T17:36:30.879Z,100240.03
2022-12-08T17:38:59.667Z,100245.19
2022-12-08T17:41:26.204Z,100245.09
2022-12-08T17:43:52.838Z,100246.84
2022-12-08T17:46:19.972Z,100244.34
2022-12-08T17:48:46.822Z,100241.75
2022-12-08T17:51:13.659Z,100235.00
2022-12-08T17:53:40.859Z,100226.28
2022-12-08T17:56:16.298Z,100240.19
2022-12-08T17:58:42.981Z,100230.22
2022-12-08T18:01:10.831Z,100235.25
2022-12-08T18:03:38.109Z,100231.94
2022-12-08T18:06:10.141Z,100234.44
2022-12-08T18:08:37.290Z,100216.47
2022-12-08T18:11:05.137Z,100219.03
2022-12-08T18:13:32.022Z,100229.44
2022-12-08T18:15:58.536Z,100230.47
2022-12-08T18:18:25.095Z,100237.09
2022-12-08T18:20:51.592Z,100233.84
2022-12-08T18:23:18.130Z,100239.94
2022-12-08T18:25:45.083Z,100237.44
2022-12-08T18:28:11.729Z,100236.69
2022-12-08T18:30:40.466Z,100242.94
2022-12-08T18:33:08.152Z,100253.16
2022-12-08T18:35:34.839Z,100246.44
2022-12-08T18:38:01.372Z,100245.75
2022-12-08T18:40:28.331Z,100246.56
2022-12-08T18:42:54.900Z,100251.84
2022-12-08T18:45:22.844Z,100242.41
2022-12-08T18:47:51.691Z,100251.25
2022-12-08T18:50:18.934Z,100249.56
2022-12-08T18:52:46.031Z,100249.66
2022-12-08T18:55:12.726Z,100251.41
2022-12-08T18:57:42.586Z,100248.84
2022-12-08T19:00:13.676Z,100244.56
2022-12-08T19:02:40.575Z,100247.97
2022-12-08T19:05:09.008Z,100254.13
2022-12-08T19:07:36.238Z,100241.34
2022-12-08T19:10:03.819Z,100246.50
2022-12-08T19:12:30.704Z,100248.16
2022-12-08T19:14:57.979Z,100253.16
2022-12-08T19:17:25.938Z,100248.66
2022-12-08T19:19:52.490Z,100250.38
2022-12-08T19:22:18.990Z,100247.91
2022-12-08T19:24:45.658Z,100246.63
2022-12-08T19:27:12.199Z,100254.53
2022-12-08T19:29:38.729Z,100256.44
2022-12-08T19:32:05.352Z,100252.88
2022-12-08T19:34:32.136Z,100257.25
2022-12-08T19:36:58.609Z,100262.22
2022-12-08T19:39:43.428Z,100260.38
2022-12-08T19:42:39.276Z,100257.88
2022-12-08T19:45:12.232Z,100259.09
2022-12-08T19:47:39.383Z,100258.97
2022-12-08T19:50:26.590Z,100256.38
2022-12-08T19:52:53.585Z,100262.97
2022-12-08T19:55:20.491Z,100256.88
2022-12-08T19:57:47.046Z,100255.78
2022-12-08T20:00:13.888Z,100255.72
2022-12-08T20:02:40.509Z,100259.22
2022-12-08T20:05:08.494Z,100255.66
2022-12-08T20:07:35.704Z,100268.63
2022-12-08T20:10:06.390Z,100263.16
2022-12-08T20:12:33.059Z,100253.56
2022-12-08T20:14:59.753Z,100258.66
2022-12-08T20:17:26.425Z,100253.25
2022-12-08T20:19:53.002Z,100256.22
2022-12-08T20:22:19.514Z,100257.16
2022-12-08T20:24:49.172Z,100251.41
2022-12-08T20:27:21.087Z,100254.97
2022-12-08T20:29:47.621Z,100255.13
2022-12-08T20:32:14.144Z,100253.88
2022-12-08T20:34:41.156Z,100255.94
2022-12-08T20:37:07.774Z,100249.13
2022-12-08T20:39:34.309Z,100249.13
2022-12-08T20:42:00.760Z,100248.34
2022-12-08T20:44:29.405Z,100239.19
2022-12-08T20:46:57.148Z,100236.78
2022-12-08T20:49:23.979Z,100247.16
2022-12-08T20:51:50.929Z,100248.97
2022-12-08T20:54:17.507Z,100254.13
2022-12-08T20:56:48.321Z,100257.69
2022-12-08T20:59:17.132Z,100250.03
2022-12-08T21:01:43.904Z,100250.66
2022-12-08T21:04:12.319Z,100245.44
2022-12-08T21:06:39.147Z,100247.91
2022-12-08T21:09:05.817Z,100248.59
2022-12-08T21:11:32.524Z,100253.66
2022-12-08T21:13:59.146Z,100237.44
2022-12-08T21:16:25.695Z,100241.53
2022-12-08T21:18:52.326Z,100244.19
2022-12-08T21:21:18.858Z,100236.53
2022-12-08T21:23:45.581Z,100246.59
2022-12-08T21:26:23.382Z,100246.69
2022-12-08T21:28:50.066Z,100251.75
2022-12-08T21:31:18.974Z,100251.75
2022-12-08T21:33:45.825Z,100258.66
2022-12-08T21:36:15.269Z,100250.84
2022-12-08T21:38:42.972Z,100253.38
2022-12-08T21:41:13.331Z,100254.19
2022-12-08T21:43:40.443Z,100249.88
2022-12-08T21:46:07.267Z,100255.03
2022-12-08T21:48:34.114Z,100250.63
2022-12-08T21:51:05.397Z,100251.75
2022-12-08T21:53:32.083Z,100248.28
2022-12-08T21:55:58.817Z,100246.69
2022-12-08T21:58:26.421Z,100246.78
2022-12-08T22:00:53.395Z,100243.34
2022-12-08T22:03:20.241Z,100246.09
2022-12-08T22:05:47.004Z,100241.09
2022-12-08T22:08:13.724Z,100247.16
2022-12-08T22:10:40.669Z,100248.69
2022-12-08T22:13:07.274Z,100255.56
2022-12-08T22:15:34.200Z,100255.81
2022-12-08T22:18:01.009Z,100255.19
2022-12-08T22:20:27.829Z,100253.88
2022-12-08T22:22:54.534Z,100248.25
2022-12-08T22:25:21.126Z,100248.50
2022-12-08T22:27:47.857Z,100249.53
2022-12-08T22:30:14.589Z,100257.38
2022-12-08T22:32:41.919Z,100252.78
2022-12-08T22:35:09.325Z,100249.31
2022-12-08T22:37:35.929Z,100252.63
2022-12-08T22:40:02.434Z,100250.84
2022-12-08T22:42:29.519Z,100252.50
2022-12-08T22:44:56.130Z,100249.16
2022-12-08T22:47:22.839Z,100238.94
2022-12-08T22:49:49.387Z,100242.44
2022-12-08T22:52:15.909Z,100239.97
2022-12-08T22:54:42.477Z,100243.41
2022-12-08T22:57:09.093Z,100241.00
2022-12-08T22:59:35.671Z,100244.56
2022-12-08T23:02:02.171Z,100243.81
2022-12-08T23:04:29.048Z,100248.03
2022-12-08T23:06:55.864Z,100234.47
2022-12-08T23:09:23.616Z,100248.94
2022-12-08T23:11:50.181Z,100237.34
2022-12-08T23:14:16.713Z,100244.31
2022-12-08T23:16:43.283Z,100236.53
2022-12-08T23:19:09.898Z,100234.94
2022-12-08T23:21:36.491Z,100233.41
2022-12-08T23:24:03.282Z,100227.72
2022-12-08T23:26:32.085Z,100233.72
2022-12-08T23:28:59.622Z,100239.97
2022-12-08T23:31:28.198Z,100234.19
2022-12-08T23:33:55.535Z,100235.00
2022-12-08T23:36:25.908Z,100226.63
2022-12-08T23:38:53.406Z,100236.13
2022-12-08T23:41:20.217Z,100239.63
2022-12-08T23:43:50.012Z,100243.31
2022-12-08T23:46:18.940Z,100233.09
2022-12-08T23:48:46.072Z,100234.06
2022-12-08T23:51:13.342Z,100237.59
2022-12-08T23:53:39.827Z,100231.03
2022-12-08T23:56:09.017Z,100232.09
2022-12-08T23:58:36.164Z,100224.59
